Time;durP1;ratioP1;P1;durP2;ratioP2;P2;SDS_P1;SDS_P2;PMS_P1;PMS_P2;Temp;Humidity;BMP_temperature;BMP_pressure;BME280_temperature;BME280_humidity;BME280_pressure;Samples;Min_cycle;Max_cycle;Signal;HPM_P1;HPM_P2
2023/05/14 00:01:19;;;;;;;10.00;7.03;;;;;;;;;;5094484;28;20044;-67
2023/05/14 00:03:46;;;;;;;8.57;6.53;;;;;;;;;;5093078;28;20040;-67
2023/05/14 00:06:12;;;;;;;12.18;7.78;;;;;;;;;;5081639;28;20383;-67
2023/05/14 00:08:39;;;;;;;11.27;7.80;;;;;;;;;;5073849;28;20045;-68
2023/05/14 00:11:07;;;;;;;11.05;7.20;;;;;;;;;;5073966;28;20051;-68
2023/05/14 00:13:34;;;;;;;9.93;7.05;;;;;;;;;;5073628;28;20051;-67
2023/05/14 00:16:00;;;;;;;9.48;7.05;;;;;;;;;;5073388;28;20051;-68
2023/05/14 00:18:28;;;;;;;10.98;6.65;;;;;;;;;;5073622;28;20048;-67
2023/05/14 00:20:55;;;;;;;11.05;6.80;;;;;;;;;;5073374;28;20053;-68
2023/05/14 00:23:21;;;;;;;11.90;7.40;;;;;;;;;;5073673;28;20051;-68
2023/05/14 00:25:48;;;;;;;9.73;7.10;;;;;;;;;;5073137;28;20421;-67
2023/05/14 00:28:15;;;;;;;10.50;7.38;;;;;;;;;;5073751;28;20054;-68
2023/05/14 00:30:41;;;;;;;16.88;8.55;;;;;;;;;;5072934;28;20041;-66
2023/05/14 00:33:08;;;;;;;13.85;7.35;;;;;;;;;;5073538;28;20040;-66
2023/05/14 00:35:36;;;;;;;13.65;7.70;;;;;;;;;;5093575;28;20047;-68
2023/05/14 00:38:03;;;;;;;13.75;7.45;;;;;;;;;;5093597;28;20048;-67
2023/05/14 00:40:29;;;;;;;16.20;7.90;;;;;;;;;;5092751;28;20486;-68
2023/05/14 00:42:56;;;;;;;15.25;8.50;;;;;;;;;;5093735;28;20044;-68
2023/05/14 00:45:23;;;;;;;14.40;7.63;;;;;;;;;;5093799;28;20500;-68
2023/05/14 00:47:50;;;;;;;18.38;8.63;;;;;;;;;;5093795;28;20051;-67
2023/05/14 00:50:17;;;;;;;16.58;7.95;;;;;;;;;;5093523;28;20052;-67
2023/05/14 00:52:45;;;;;;;14.95;7.90;;;;;;;;;;5093287;28;20044;-67
2023/05/14 00:55:16;;;;;;;14.07;7.57;;;;;;;;;;5093188;28;20486;-67
2023/05/14 00:57:42;;;;;;;10.40;7.65;;;;;;;;;;5092936;28;20082;-67
2023/05/14 01:00:09;;;;;;;11.18;8.45;;;;;;;;;;5093361;28;20048;-67
2023/05/14 01:02:36;;;;;;;12.88;8.70;;;;;;;;;;5092673;28;20054;-67
2023/05/14 01:05:03;;;;;;;11.10;8.07;;;;;;;;;;5078070;28;20410;-67
2023/05/14 01:07:35;;;;;;;11.48;8.07;;;;;;;;;;5092461;28;20044;-67
2023/05/14 01:10:09;;;;;;;10.63;8.00;;;;;;;;;;5092630;28;20055;-68
2023/05/14 01:12:39;;;;;;;8.52;7.38;;;;;;;;;;5092698;28;20075;-68
2023/05/14 01:15:11;;;;;;;10.07;7.28;;;;;;;;;;5093153;28;20044;-68
2023/05/14 01:17:42;;;;;;;11.90;6.70;;;;;;;;;;5092534;28;20131;-67
2023/05/14 01:20:10;;;;;;;12.18;6.63;;;;;;;;;;5092476;28;20059;-68
2023/05/14 01:22:38;;;;;;;8.45;6.53;;;;;;;;;;5092731;28;20044;-68
2023/05/14 01:25:06;;;;;;;11.23;6.43;;;;;;;;;;5092630;28;20409;-68
2023/05/14 01:27:38;;;;;;;13.52;6.68;;;;;;;;;;5092619;28;20052;-67
2023/05/14 01:30:13;;;;;;;11.07;6.50;;;;;;;;;;5091844;28;20051;-67
2023/05/14 01:32:41;;;;;;;9.73;6.50;;;;;;;;;;5092422;28;20655;-67
2023/05/14 01:35:09;;;;;;;9.43;6.78;;;;;;;;;;5091765;28;20047;-68
2023/05/14 01:37:38;;;;;;;7.43;6.03;;;;;;;;;;5092504;28;20101;-67
2023/05/14 01:40:07;;;;;;;9.57;5.93;;;;;;;;;;5092196;28;20538;-67
2023/05/14 01:42:34;;;;;;;12.23;6.80;;;;;;;;;;5092593;28;20457;-68
2023/05/14 01:45:01;;;;;;;11.70;6.35;;;;;;;;;;5091730;28;20405;-67
2023/05/14 01:47:27;;;;;;;10.68;6.28;;;;;;;;;;5092683;28;20040;-68
2023/05/14 01:49:54;;;;;;;10.82;6.32;;;;;;;;;;5091482;28;20059;-68
2023/05/14 01:52:20;;;;;;;10.60;6.30;;;;;;;;;;5092666;28;20047;-68
2023/05/14 01:54:48;;;;;;;7.25;6.18;;;;;;;;;;5092318;28;20044;-67
2023/05/14 01:57:15;;;;;;;10.98;6.38;;;;;;;;;;5091862;28;20056;-66
2023/05/14 01:59:42;;;;;;;9.32;5.95;;;;;;;;;;5091834;28;20082;-67
2023/05/14 02:02:08;;;;;;;8.18;5.32;;;;;;;;;;5078526;28;20253;-66
2023/05/14 02:04:35;;;;;;;8.77;6.90;;;;;;;;;;5071737;28;20048;-67
2023/05/14 02:07:01;;;;;;;10.02;5.78;;;;;;;;;;5070684;28;20044;-67
2023/05/14 02:09:28;;;;;;;8.93;6.30;;;;;;;;;;5070805;28;20052;-66
2023/05/14 02:11:56;;;;;;;12.23;6.15;;;;;;;;;;5070816;28;20048;-66
2023/05/14 02:14:22;;;;;;;10.77;5.85;;;;;;;;;;5071327;28;20143;-67
2023/05/14 02:16:49;;;;;;;8.45;5.90;;;;;;;;;;5071027;28;20045;-67
2023/05/14 02:19:16;;;;;;;8.85;5.70;;;;;;;;;;5071350;28;20470;-66
2023/05/14 02:21:42;;;;;;;8.57;5.82;;;;;;;;;;5070649;28;20048;-67
2023/05/14 02:24:09;;;;;;;8.07;6.13;;;;;;;;;;5071240;28;20047;-67
2023/05/14 02:26:35;;;;;;;8.25;6.03;;;;;;;;;;5070376;28;20056;-69
2023/05/14 02:29:03;;;;;;;9.82;6.18;;;;;;;;;;5071023;28;20053;-66
2023/05/14 02:31:30;;;;;;;9.52;6.05;;;;;;;;;;5070412;28;20048;-66
2023/05/14 02:33:56;;;;;;;7.57;6.32;;;;;;;;;;5077369;28;20048;-67
2023/05/14 02:36:23;;;;;;;10.50;6.57;;;;;;;;;;5091071;28;20040;-67
2023/05/14 02:38:49;;;;;;;7.13;5.78;;;;;;;;;;5091060;28;20051;-67
2023/05/14 02:41:16;;;;;;;6.88;5.93;;;;;;;;;;5090410;28;20406;-67
2023/05/14 02:43:42;;;;;;;11.82;5.88;;;;;;;;;;5090485;28;20043;-66
2023/05/14 02:46:10;;;;;;;10.13;5.85;;;;;;;;;;5091157;28;20040;-67
2023/05/14 02:48:37;;;;;;;9.35;6.05;;;;;;;;;;5090564;28;20051;-67
2023/05/14 02:51:03;;;;;;;10.27;5.75;;;;;;;;;;5090721;28;20052;-67
2023/05/14 02:53:30;;;;;;;9.30;6.38;;;;;;;;;;5090560;28;20048;-67
2023/05/14 02:55:56;;;;;;;7.80;5.35;;;;;;;;;;5090555;28;20044;-66
2023/05/14 02:58:23;;;;;;;8.95;6.05;;;;;;;;;;5091148;28;20044;-66
2023/05/14 03:00:49;;;;;;;7.22;6.03;;;;;;;;;;5071858;28;20068;-67
2023/05/14 03:03:19;;;;;;;9.93;6.00;;;;;;;;;;5070796;28;20049;-66
2023/05/14 03:05:45;;;;;;;9.73;6.20;;;;;;;;;;5077202;28;20048;-67
2023/05/14 03:08:12;;;;;;;8.10;5.90;;;;;;;;;;5090744;28;20043;-67
2023/05/14 03:10:38;;;;;;;9.35;5.78;;;;;;;;;;5089682;28;20048;-66
2023/05/14 03:13:05;;;;;;;8.98;6.35;;;;;;;;;;5090866;28;20055;-67
2023/05/14 03:15:31;;;;;;;14.27;6.13;;;;;;;;;;5090339;28;20383;-67
2023/05/14 03:17:58;;;;;;;9.23;5.60;;;;;;;;;;5090660;28;20483;-67
2023/05/14 03:20:27;;;;;;;7.78;5.38;;;;;;;;;;5088844;28;20044;-67
2023/05/14 03:22:54;;;;;;;7.00;5.40;;;;;;;;;;5090330;28;20410;-66
2023/05/14 03:25:21;;;;;;;6.97;6.03;;;;;;;;;;5090190;28;20134;-67
2023/05/14 03:27:48;;;;;;;8.60;5.90;;;;;;;;;;5090318;28;20047;-67
2023/05/14 03:30:14;;;;;;;8.13;5.40;;;;;;;;;;5090040;28;20044;-66
2023/05/14 03:32:41;;;;;;;6.90;5.55;;;;;;;;;;5090182;28;20044;-67
2023/05/14 03:35:08;;;;;;;8.77;6.40;;;;;;;;;;5089209;28;20044;-66
2023/05/14 03:37:36;;;;;;;6.85;5.55;;;;;;;;;;5089667;28;20498;-66
2023/05/14 03:40:03;;;;;;;7.45;5.93;;;;;;;;;;5090206;28;20441;-67
2023/05/14 03:42:30;;;;;;;8.75;5.43;;;;;;;;;;5090051;28;20055;-67
2023/05/14 03:44:56;;;;;;;12.77;5.82;;;;;;;;;;5090413;28;20379;-67
2023/05/14 03:47:23;;;;;;;9.25;5.85;;;;;;;;;;5089699;28;20040;-67
2023/05/14 03:49:50;;;;;;;6.93;5.57;;;;;;;;;;5089857;28;20410;-67
2023/05/14 03:52:16;;;;;;;6.93;5.65;;;;;;;;;;5089599;28;20098;-67
2023/05/14 03:54:44;;;;;;;8.35;6.05;;;;;;;;;;5090413;28;20044;-67
2023/05/14 03:57:10;;;;;;;7.60;5.78;;;;;;;;;;5089903;28;20067;-66
2023/05/14 03:59:37;;;;;;;8.57;5.50;;;;;;;;;;5089648;28;20040;-67
2023/05/14 04:02:04;;;;;;;7.63;6.22;;;;;;;;;;5090150;28;20247;-66
2023/05/14 04:04:30;;;;;;;7.30;6.32;;;;;;;;;;5088930;28;20054;-67
2023/05/14 04:06:57;;;;;;;7.30;5.97;;;;;;;;;;5071309;28;20041;-66
2023/05/14 04:09:23;;;;;;;7.57;6.63;;;;;;;;;;5069729;28;20649;-67
2023/05/14 04:11:51;;;;;;;7.50;6.05;;;;;;;;;;5069536;28;20048;-66
2023/05/14 04:14:18;;;;;;;7.47;5.70;;;;;;;;;;5069281;28;20055;-67
2023/05/14 04:16:44;;;;;;;7.93;6.35;;;;;;;;;;5069694;28;20055;-66
2023/05/14 04:19:11;;;;;;;7.57;5.78;;;;;;;;;;5069243;28;20049;-67
2023/05/14 04:21:38;;;;;;;12.05;6.43;;;;;;;;;;5069557;28;20475;-67
2023/05/14 04:24:05;;;;;;;7.20;5.80;;;;;;;;;;5069446;28;20438;-67
2023/05/14 04:26:31;;;;;;;8.02;5.72;;;;;;;;;;5069556;28;20055;-67
2023/05/14 04:29:01;;;;;;;8.15;5.70;;;;;;;;;;5069646;28;20044;-67
2023/05/14 04:31:28;;;;;;;6.88;5.05;;;;;;;;;;5071079;28;20043;-67
2023/05/14 04:33:55;;;;;;;8.85;5.28;;;;;;;;;;5072569;28;20048;-66
2023/05/14 04:36:21;;;;;;;5.75;4.90;;;;;;;;;;5072831;28;20052;-66
2023/05/14 04:38:48;;;;;;;6.10;5.15;;;;;;;;;;5073275;28;20045;-66
2023/05/14 04:41:15;;;;;;;5.68;5.03;;;;;;;;;;5072717;28;20085;-67
2023/05/14 04:43:41;;;;;;;6.60;4.75;;;;;;;;;;5073264;28;20055;-67
2023/05/14 04:46:10;;;;;;;6.90;5.32;;;;;;;;;;5072440;28;20421;-67
2023/05/14 04:48:36;;;;;;;5.93;5.25;;;;;;;;;;5073162;28;20049;-67
2023/05/14 04:51:03;;;;;;;7.30;5.10;;;;;;;;;;5072102;28;20051;-67
2023/05/14 04:53:30;;;;;;;5.88;5.00;;;;;;;;;;5073075;28;20055;-67
2023/05/14 04:55:56;;;;;;;9.02;5.10;;;;;;;;;;5072589;28;20524;-67
2023/05/14 04:58:23;;;;;;;6.55;5.28;;;;;;;;;;5072753;28;20051;-66
2023/05/14 05:00:49;;;;;;;5.43;4.65;;;;;;;;;;5072632;28;20056;-67
2023/05/14 05:03:17;;;;;;;9.50;5.18;;;;;;;;;;5071166;28;20045;-67
2023/05/14 05:05:44;;;;;;;5.60;4.90;;;;;;;;;;5079970;28;20044;-67
2023/05/14 05:08:11;;;;;;;6.95;5.45;;;;;;;;;;5092427;28;20040;-66
2023/05/14 05:10:37;;;;;;;5.97;5.30;;;;;;;;;;5092752;28;20051;-67
2023/05/14 05:13:04;;;;;;;6.43;5.65;;;;;;;;;;5092775;28;20514;-67
2023/05/14 05:15:30;;;;;;;6.13;4.88;;;;;;;;;;5092583;28;20044;-67
2023/05/14 05:17:57;;;;;;;5.50;4.97;;;;;;;;;;5092592;28;20047;-67
2023/05/14 05:20:26;;;;;;;5.40;4.78;;;;;;;;;;5092451;28;20668;-67
2023/05/14 05:22:53;;;;;;;5.97;4.88;;;;;;;;;;5092420;28;20517;-67
2023/05/14 05:25:20;;;;;;;5.55;4.72;;;;;;;;;;5092519;28;20500;-67
2023/05/14 05:27:46;;;;;;;7.60;4.68;;;;;;;;;;5092590;28;20044;-66
2023/05/14 05:30:13;;;;;;;7.10;4.82;;;;;;;;;;5092247;28;20490;-67
2023/05/14 05:32:40;;;;;;;6.15;5.03;;;;;;;;;;5092526;28;20514;-66
2023/05/14 05:35:07;;;;;;;4.68;4.05;;;;;;;;;;5082326;28;20052;-67
2023/05/14 05:37:35;;;;;;;4.72;4.15;;;;;;;;;;5071883;28;20059;-67
2023/05/14 05:40:03;;;;;;;4.55;4.05;;;;;;;;;;5071242;28;20055;-66
2023/05/14 05:42:29;;;;;;;4.97;3.83;;;;;;;;;;5070946;28;20048;-67
2023/05/14 05:44:56;;;;;;;4.50;4.03;;;;;;;;;;5071843;28;20049;-67
2023/05/14 05:47:22;;;;;;;3.92;3.53;;;;;;;;;;5072072;28;20044;-67
2023/05/14 05:49:49;;;;;;;5.88;4.30;;;;;;;;;;5070913;28;20044;-67
2023/05/14 05:52:16;;;;;;;5.38;4.25;;;;;;;;;;5071732;28;20045;-67
2023/05/14 05:54:43;;;;;;;4.80;4.15;;;;;;;;;;5071546;28;20053;-67
2023/05/14 05:57:10;;;;;;;5.15;4.28;;;;;;;;;;5071537;28;20044;-67
2023/05/14 05:59:37;;;;;;;4.30;3.90;;;;;;;;;;5071458;28;20050;-67
2023/05/14 06:02:03;;;;;;;4.18;3.78;;;;;;;;;;5070711;28;20044;-67
2023/05/14 06:04:30;;;;;;;5.22;3.72;;;;;;;;;;5071588;28;20052;-66
2023/05/14 06:06:56;;;;;;;4.22;3.55;;;;;;;;;;5070254;28;20044;-67
2023/05/14 06:09:23;;;;;;;3.70;3.40;;;;;;;;;;5071414;28;20044;-67
2023/05/14 06:11:51;;;;;;;4.07;3.55;;;;;;;;;;5070969;28;20328;-66
2023/05/14 06:14:17;;;;;;;3.30;3.00;;;;;;;;;;5071353;28;20063;-67
2023/05/14 06:16:44;;;;;;;4.93;3.50;;;;;;;;;;5071060;28;20049;-67
2023/05/14 06:19:10;;;;;;;3.80;3.45;;;;;;;;;;5071682;28;20047;-67
2023/05/14 06:21:37;;;;;;;4.15;3.75;;;;;;;;;;5070947;28;20061;-67
2023/05/14 06:24:04;;;;;;;4.15;3.75;;;;;;;;;;5071340;28;20052;-66
2023/05/14 06:26:30;;;;;;;4.32;3.90;;;;;;;;;;5070859;28;20056;-66
2023/05/14 06:28:59;;;;;;;7.40;4.55;;;;;;;;;;5071247;28;20083;-67
2023/05/14 06:31:25;;;;;;;4.68;4.07;;;;;;;;;;5070692;28;20055;-67
2023/05/14 06:33:52;;;;;;;5.38;3.80;;;;;;;;;;5076660;28;20521;-66
2023/05/14 06:36:18;;;;;;;4.07;3.55;;;;;;;;;;5091140;28;20494;-67
2023/05/14 06:38:45;;;;;;;4.10;3.70;;;;;;;;;;5090791;28;20520;-67
2023/05/14 06:41:12;;;;;;;4.43;3.65;;;;;;;;;;5091018;28;20451;-67
2023/05/14 06:43:38;;;;;;;4.07;3.72;;;;;;;;;;5090776;28;20044;-67
2023/05/14 06:46:06;;;;;;;5.35;3.75;;;;;;;;;;5091206;28;20062;-69
2023/05/14 06:48:33;;;;;;;3.70;3.30;;;;;;;;;;5090801;28;20105;-67
2023/05/14 06:50:59;;;;;;;4.35;3.78;;;;;;;;;;5090697;28;20048;-67
2023/05/14 06:53:26;;;;;;;4.10;3.70;;;;;;;;;;5090196;28;20044;-67
2023/05/14 06:55:52;;;;;;;4.00;3.70;;;;;;;;;;5091019;28;20048;-67
2023/05/14 06:58:19;;;;;;;4.43;3.97;;;;;;;;;;5090966;28;20058;-66
2023/05/14 07:00:45;;;;;;;4.88;3.88;;;;;;;;;;5090429;28;20040;-69
2023/05/14 07:03:13;;;;;;;4.60;4.07;;;;;;;;;;5089482;28;20055;-67
2023/05/14 07:05:40;;;;;;;4.50;4.10;;;;;;;;;;5068912;28;20055;-67
2023/05/14 07:08:07;;;;;;;5.22;4.07;;;;;;;;;;5070153;28;20048;-68
2023/05/14 07:10:34;;;;;;;4.97;4.30;;;;;;;;;;5069886;28;20051;-67
2023/05/14 07:13:00;;;;;;;5.88;4.43;;;;;;;;;;5070694;28;20045;-68
2023/05/14 07:15:27;;;;;;;6.35;4.75;;;;;;;;;;5069922;28;20411;-67
2023/05/14 07:17:53;;;;;;;5.38;4.88;;;;;;;;;;5070355;28;20041;-67
2023/05/14 07:20:22;;;;;;;5.50;4.97;;;;;;;;;;5069599;28;20505;-70
2023/05/14 07:22:49;;;;;;;6.43;5.20;;;;;;;;;;5069646;28;20959;-67
2023/05/14 07:25:15;;;;;;;6.45;5.20;;;;;;;;;;5069978;28;20044;-67
2023/05/14 07:27:42;;;;;;;6.63;5.20;;;;;;;;;;5070543;28;20048;-67
2023/05/14 07:30:09;;;;;;;7.13;5.15;;;;;;;;;;5070091;28;20418;-68
2023/05/14 07:32:36;;;;;;;6.15;5.55;;;;;;;;;;5069622;28;20406;-68
2023/05/14 07:35:02;;;;;;;6.47;5.70;;;;;;;;;;5069980;28;20045;-68
2023/05/14 07:37:30;;;;;;;7.00;6.00;;;;;;;;;;5069762;28;20413;-68
2023/05/14 07:39:57;;;;;;;8.65;5.88;;;;;;;;;;5069976;28;20051;-68
2023/05/14 07:42:23;;;;;;;8.05;6.60;;;;;;;;;;5070127;28;20052;-68
2023/05/14 07:44:50;;;;;;;7.40;6.60;;;;;;;;;;5070413;28;20289;-68
2023/05/14 07:47:17;;;;;;;8.43;7.20;;;;;;;;;;5069402;28;20544;-70
2023/05/14 07:49:43;;;;;;;7.60;6.78;;;;;;;;;;5068586;28;20040;-70
2023/05/14 07:52:10;;;;;;;7.30;6.60;;;;;;;;;;5070155;28;20490;-70
2023/05/14 07:54:38;;;;;;;7.85;7.05;;;;;;;;;;5070233;28;20044;-70
2023/05/14 07:57:05;;;;;;;9.85;6.85;;;;;;;;;;5070074;28;20471;-71
2023/05/14 07:59:31;;;;;;;9.27;6.88;;;;;;;;;;5069257;28;20055;-71
2023/05/14 08:01:58;;;;;;;8.52;7.32;;;;;;;;;;5069517;28;20498;-70
2023/05/14 08:04:25;;;;;;;9.45;7.93;;;;;;;;;;5069445;28;20052;-70
2023/05/14 08:06:51;;;;;;;8.65;7.68;;;;;;;;;;5088382;28;20044;-70
2023/05/14 08:09:18;;;;;;;9.00;8.02;;;;;;;;;;5093519;28;20051;-70
2023/05/14 08:11:46;;;;;;;9.18;7.43;;;;;;;;;;5094253;28;20055;-70
2023/05/14 08:14:12;;;;;;;8.50;7.45;;;;;;;;;;5093525;28;20048;-70
2023/05/14 08:16:39;;;;;;;10.65;8.00;;;;;;;;;;5093643;28;20062;-70
2023/05/14 08:19:05;;;;;;;8.90;7.72;;;;;;;;;;5093953;28;20048;-71
2023/05/14 08:21:32;;;;;;;10.35;7.75;;;;;;;;;;5093840;28;20044;-68
2023/05/14 08:24:13;;;;;;;7.72;6.82;;;;;;;;;;5093859;28;20044;-70
2023/05/14 08:26:39;;;;;;;7.20;6.47;;;;;;;;;;5093503;28;20126;-67
2023/05/14 08:29:07;;;;;;;9.43;7.82;;;;;;;;;;5093551;28;20398;-68
2023/05/14 08:31:34;;;;;;;8.98;8.07;;;;;;;;;;5092921;28;20391;-68
2023/05/14 08:34:00;;;;;;;10.02;7.30;;;;;;;;;;5093161;28;20055;-68
2023/05/14 08:36:27;;;;;;;9.10;8.18;;;;;;;;;;5093255;28;20040;-69
2023/05/14 08:38:53;;;;;;;8.60;7.70;;;;;;;;;;5093481;28;20044;-69
2023/05/14 08:41:21;;;;;;;9.80;7.53;;;;;;;;;;5092476;28;20048;-68
2023/05/14 08:44:01;;;;;;;9.00;7.32;;;;;;;;;;5093365;28;20083;-68
2023/05/14 08:46:30;;;;;;;8.38;7.57;;;;;;;;;;5093000;28;20490;-68
2023/05/14 08:49:03;;;;;;;8.93;7.63;;;;;;;;;;5093379;28;20456;-68
2023/05/14 08:51:30;;;;;;;;;;;;;;;;;;5092923;28;20051;-68
2023/05/14 08:53:58;;;;;;;10.15;7.50;;;;;;;;;;5093275;28;19920;-68
2023/05/14 08:56:26;;;;;;;8.38;7.47;;;;;;;;;;5092383;28;20044;-68
2023/05/14 08:58:53;;;;;;;10.23;7.43;;;;;;;;;;5093423;28;20512;-68
2023/05/14 09:01:19;;;;;;;11.38;8.18;;;;;;;;;;5092087;28;20050;-68
2023/05/14 09:03:48;;;;;;;9.30;7.60;;;;;;;;;;5091839;28;20115;-69
2023/05/14 09:06:16;;;;;;;10.00;7.00;;;;;;;;;;5079769;28;20097;-70
2023/05/14 09:08:43;;;;;;;9.02;7.07;;;;;;;;;;5072493;28;20512;-70
2023/05/14 09:11:09;;;;;;;8.35;7.32;;;;;;;;;;5072850;28;20063;-69
2023/05/14 09:13:38;;;;;;;7.03;6.32;;;;;;;;;;5072255;28;20131;-70
2023/05/14 09:16:05;;;;;;;6.97;6.07;;;;;;;;;;5072470;28;20053;-69
2023/05/14 09:18:31;;;;;;;7.47;5.82;;;;;;;;;;5071045;28;20286;-70
2023/05/14 09:21:00;;;;;;;8.88;6.60;;;;;;;;;;5072481;28;20052;-70
2023/05/14 09:23:26;;;;;;;7.65;6.18;;;;;;;;;;5072344;28;20139;-70
2023/05/14 09:25:53;;;;;;;6.40;5.80;;;;;;;;;;5072687;28;20414;-70
2023/05/14 09:28:23;;;;;;;8.27;5.80;;;;;;;;;;5072203;28;20422;-70
2023/05/14 09:30:50;;;;;;;6.70;5.90;;;;;;;;;;5072257;28;20673;-70
2023/05/14 09:33:27;;;;;;;6.13;5.53;;;;;;;;;;5072347;28;20052;-70
2023/05/14 09:35:57;;;;;;;6.28;5.68;;;;;;;;;;5092661;28;20505;-70
2023/05/14 09:38:28;;;;;;;6.82;5.55;;;;;;;;;;5092430;28;20406;-70
2023/05/14 09:40:55;;;;;;;5.72;5.20;;;;;;;;;;5092693;28;20161;-70
2023/05/14 09:43:21;;;;;;;6.20;5.60;;;;;;;;;;5092892;28;20043;-70
2023/05/14 09:45:48;;;;;;;5.85;5.25;;;;;;;;;;5091927;28;20047;-70
2023/05/14 09:48:15;;;;;;;5.45;4.70;;;;;;;;;;5092360;28;20154;-70
2023/05/14 09:50:42;;;;;;;5.70;5.05;;;;;;;;;;5091841;28;20467;-70
2023/05/14 09:53:09;;;;;;;6.38;4.75;;;;;;;;;;5071526;28;20063;-70
2023/05/14 09:55:38;;;;;;;7.63;4.90;;;;;;;;;;5071345;28;20052;-71
2023/05/14 09:58:05;;;;;;;3.80;3.40;;;;;;;;;;5072513;28;20044;-71
2023/05/14 10:00:32;;;;;;;5.93;4.10;;;;;;;;;;5071010;28;20127;-71
2023/05/14 10:03:04;;;;;;;3.72;3.33;;;;;;;;;;5088618;28;20051;-71
2023/05/14 10:05:36;;;;;;;4.85;3.45;;;;;;;;;;5084734;28;20078;-70
2023/05/14 10:08:08;;;;;;;4.55;4.10;;;;;;;;;;5071721;28;20410;-70
2023/05/14 10:10:37;;;;;;;3.97;3.42;;;;;;;;;;5071579;28;20406;-70
2023/05/14 10:13:07;;;;;;;5.03;3.53;;;;;;;;;;5071402;28;20044;-70
2023/05/14 10:15:38;;;;;;;3.80;3.50;;;;;;;;;;5071217;28;20510;-70
2023/05/14 10:18:10;;;;;;;4.68;3.70;;;;;;;;;;5071507;28;20055;-70
2023/05/14 10:20:38;;;;;;;4.13;3.53;;;;;;;;;;5074610;28;20440;-72
2023/05/14 10:23:06;;;;;;;4.38;3.60;;;;;;;;;;5071164;28;20273;-70
2023/05/14 10:25:33;;;;;;;3.70;3.40;;;;;;;;;;5071457;28;20140;-71
2023/05/14 10:28:02;;;;;;;3.88;3.33;;;;;;;;;;5070896;28;20453;-71
2023/05/14 10:30:28;;;;;;;4.63;3.60;;;;;;;;;;5070787;28;20048;-71
2023/05/14 10:33:08;;;;;;;3.90;3.45;;;;;;;;;;5070657;28;20044;-71
2023/05/14 10:35:57;;;;;;;3.90;3.50;;;;;;;;;;5071146;28;20106;-71
2023/05/14 10:38:27;;;;;;;4.82;3.00;;;;;;;;;;5070478;28;20059;-71
2023/05/14 10:40:56;;;;;;;4.30;3.60;;;;;;;;;;5070845;28;20323;-72
2023/05/14 10:43:26;;;;;;;3.78;3.47;;;;;;;;;;5070610;28;20052;-71
2023/05/14 10:45:53;;;;;;;4.18;3.20;;;;;;;;;;5070863;28;20074;-71
2023/05/14 10:48:20;;;;;;;3.40;2.65;;;;;;;;;;5071685;28;20059;-71
2023/05/14 10:50:48;;;;;;;3.28;2.70;;;;;;;;;;5090723;28;20047;-71
2023/05/14 10:53:15;;;;;;;2.85;2.65;;;;;;;;;;5090866;28;20051;-71
2023/05/14 10:55:42;;;;;;;3.53;2.50;;;;;;;;;;5090760;28;20095;-71
2023/05/14 10:58:10;;;;;;;5.40;2.80;;;;;;;;;;5090794;28;20044;-71
2023/05/14 11:00:39;;;;;;;2.92;2.72;;;;;;;;;;5090156;28;20047;-71
2023/05/14 11:03:06;;;;;;;3.13;2.83;;;;;;;;;;5090991;28;20055;-71
2023/05/14 11:05:36;;;;;;;3.10;2.80;;;;;;;;;;5083068;28;20036;-71
2023/05/14 11:08:06;;;;;;;3.50;2.80;;;;;;;;;;5070768;28;20512;-71
2023/05/14 11:10:35;;;;;;;3.00;2.70;;;;;;;;;;5069829;28;20044;-71
2023/05/14 11:13:01;;;;;;;3.03;2.83;;;;;;;;;;5070513;28;20049;-71
2023/05/14 11:15:28;;;;;;;4.70;3.20;;;;;;;;;;5069835;28;20040;-71
2023/05/14 11:17:56;;;;;;;2.88;2.67;;;;;;;;;;5070235;28;20045;-71
2023/05/14 11:20:22;;;;;;;2.95;2.75;;;;;;;;;;5069942;28;20044;-71
2023/05/14 11:22:51;;;;;;;2.78;2.40;;;;;;;;;;5070514;28;20479;-71
2023/05/14 11:25:17;;;;;;;3.42;2.80;;;;;;;;;;5070269;28;20049;-71
2023/05/14 11:27:45;;;;;;;3.17;2.90;;;;;;;;;;5070269;28;20044;-70
2023/05/14 11:30:13;;;;;;;3.13;2.83;;;;;;;;;;5069820;28;20115;-68
2023/05/14 11:32:40;;;;;;;2.40;2.20;;;;;;;;;;5069880;28;20059;-69
2023/05/14 11:35:09;;;;;;;4.00;2.70;;;;;;;;;;5070697;28;20052;-68
2023/05/14 11:37:36;;;;;;;2.88;2.60;;;;;;;;;;5070621;28;20044;-68
2023/05/14 11:40:06;;;;;;;2.90;2.60;;;;;;;;;;5069640;28;20286;-69
2023/05/14 11:42:33;;;;;;;3.97;2.55;;;;;;;;;;5069399;28;20106;-66
2023/05/14 11:45:00;;;;;;;2.85;2.40;;;;;;;;;;5070024;28;20506;-67
2023/05/14 11:47:26;;;;;;;2.17;2.03;;;;;;;;;;5069694;28;20055;-68
2023/05/14 11:49:53;;;;;;;2.63;2.38;;;;;;;;;;5070303;28;20048;-68
2023/05/14 11:52:21;;;;;;;4.15;2.50;;;;;;;;;;5069877;28;20045;-67
2023/05/14 11:54:49;;;;;;;4.38;2.80;;;;;;;;;;5070626;28;20098;-67
2023/05/14 11:57:17;;;;;;;3.97;2.60;;;;;;;;;;5070171;28;20510;-68
2023/05/14 11:59:44;;;;;;;3.75;2.53;;;;;;;;;;5070235;28;20071;-68
2023/05/14 12:02:13;;;;;;;2.45;2.20;;;;;;;;;;5070337;28;20048;-68
2023/05/14 12:04:40;;;;;;;2.35;2.15;;;;;;;;;;5069271;28;20074;-68
2023/05/14 12:07:11;;;;;;;2.63;2.30;;;;;;;;;;5088196;28;20056;-68
2023/05/14 12:09:41;;;;;;;3.08;2.38;;;;;;;;;;5089890;28;20067;-68
2023/05/14 12:12:09;;;;;;;2.20;2.00;;;;;;;;;;5090353;28;20059;-71
2023/05/14 12:14:38;;;;;;;2.47;2.28;;;;;;;;;;5089607;28;20044;-68
2023/05/14 12:17:11;;;;;;;3.58;2.60;;;;;;;;;;5089936;28;20478;-68
2023/05/14 12:19:39;;;;;;;2.30;2.10;;;;;;;;;;5089210;28;20434;-68
2023/05/14 12:22:07;;;;;;;2.22;1.92;;;;;;;;;;5090035;28;20048;-68
2023/05/14 12:24:34;;;;;;;2.88;2.10;;;;;;;;;;5089272;28;20059;-68
2023/05/14 12:27:02;;;;;;;2.53;2.33;;;;;;;;;;5089902;28;20479;-68
2023/05/14 12:29:29;;;;;;;3.10;2.10;;;;;;;;;;5089304;28;20564;-68
2023/05/14 12:31:57;;;;;;;2.50;1.83;;;;;;;;;;5089870;28;20048;-68
2023/05/14 12:34:24;;;;;;;2.10;1.88;;;;;;;;;;5088842;28;20048;-68
2023/05/14 12:36:51;;;;;;;2.50;1.90;;;;;;;;;;5090464;28;20055;-68
2023/05/14 12:39:17;;;;;;;2.20;2.00;;;;;;;;;;5089766;28;20048;-68
2023/05/14 12:41:44;;;;;;;2.17;1.95;;;;;;;;;;5089262;28;20067;-69
2023/05/14 12:44:12;;;;;;;3.20;2.40;;;;;;;;;;5090094;28;20517;-70
2023/05/14 12:46:38;;;;;;;2.15;1.95;;;;;;;;;;5089503;28;20413;-70
2023/05/14 12:49:05;;;;;;;1.90;1.80;;;;;;;;;;5090018;28;20135;-70
2023/05/14 12:51:32;;;;;;;2.38;1.65;;;;;;;;;;5088943;28;20048;-70
2023/05/14 12:53:58;;;;;;;3.05;1.80;;;;;;;;;;5093275;28;20146;-70
2023/05/14 12:56:27;;;;;;;2.90;1.70;;;;;;;;;;5093224;28;20044;-70
2023/05/14 12:58:55;;;;;;;1.50;1.40;;;;;;;;;;5093792;28;20547;-70
2023/05/14 13:01:23;;;;;;;1.58;1.48;;;;;;;;;;5092942;28;20387;-68
2023/05/14 13:03:50;;;;;;;2.13;1.45;;;;;;;;;;5092182;28;20052;-69
2023/05/14 13:06:16;;;;;;;1.52;1.30;;;;;;;;;;5091186;28;20067;-69
2023/05/14 13:08:43;;;;;;;1.77;1.30;;;;;;;;;;5093352;28;20044;-70
2023/05/14 13:11:10;;;;;;;1.40;1.30;;;;;;;;;;5092566;28;20135;-69
2023/05/14 13:13:36;;;;;;;1.67;1.30;;;;;;;;;;5093129;28;20067;-69
2023/05/14 13:16:03;;;;;;;2.72;1.30;;;;;;;;;;5093099;28;20410;-69
2023/05/14 13:18:31;;;;;;;1.40;1.30;;;;;;;;;;5092483;28;20044;-69
2023/05/14 13:20:57;;;;;;;1.33;1.23;;;;;;;;;;5092800;28;20059;-70
2023/05/14 13:23:24;;;;;;;1.45;1.33;;;;;;;;;;5092508;28;20044;-67
2023/05/14 13:25:51;;;;;;;1.50;1.40;;;;;;;;;;5093194;28;20490;-70
2023/05/14 13:28:17;;;;;;;1.50;1.40;;;;;;;;;;5092303;28;20058;-70
2023/05/14 13:31:04;;;;;;;1.20;1.10;;;;;;;;;;5092497;28;20040;-70
2023/05/14 13:33:32;;;;;;;2.92;1.40;;;;;;;;;;5090725;28;20414;-70
2023/05/14 13:35:59;;;;;;;1.20;1.10;;;;;;;;;;5092649;28;20048;-69
2023/05/14 13:38:25;;;;;;;2.00;1.30;;;;;;;;;;5092163;28;20055;-69
2023/05/14 13:40:53;;;;;;;1.20;1.15;;;;;;;;;;5092241;28;20494;-69
2023/05/14 13:43:19;;;;;;;3.08;1.58;;;;;;;;;;5092479;28;20055;-71
2023/05/14 13:45:46;;;;;;;2.55;1.50;;;;;;;;;;5092005;28;20044;-71
2023/05/14 13:48:12;;;;;;;1.70;1.60;;;;;;;;;;5092609;28;20048;-68
2023/05/14 13:50:40;;;;;;;2.05;1.70;;;;;;;;;;5091624;28;20139;-68
2023/05/14 13:53:07;;;;;;;1.90;1.80;;;;;;;;;;5092229;28;20051;-68
2023/05/14 13:55:33;;;;;;;1.98;1.88;;;;;;;;;;5091975;28;20421;-68
2023/05/14 13:58:01;;;;;;;2.10;1.63;;;;;;;;;;5092406;28;20047;-69
2023/05/14 14:00:28;;;;;;;1.90;1.80;;;;;;;;;;5091142;28;20097;-69
2023/05/14 14:02:54;;;;;;;3.63;1.85;;;;;;;;;;5077197;28;20405;-69
2023/05/14 14:05:22;;;;;;;1.77;1.65;;;;;;;;;;5069642;28;20049;-70
2023/05/14 14:07:50;;;;;;;3.33;1.88;;;;;;;;;;5071998;28;20063;-70
2023/05/14 14:10:17;;;;;;;2.03;1.83;;;;;;;;;;5070950;28;20514;-68
2023/05/14 14:12:43;;;;;;;1.80;1.70;;;;;;;;;;5071898;28;20052;-70
2023/05/14 14:15:11;;;;;;;2.55;1.85;;;;;;;;;;5071288;28;20064;-68
2023/05/14 14:17:40;;;;;;;1.60;1.50;;;;;;;;;;5071414;28;20052;-69
2023/05/14 14:20:08;;;;;;;1.50;1.40;;;;;;;;;;5070916;28;20082;-69
2023/05/14 14:22:34;;;;;;;3.20;1.40;;;;;;;;;;5070884;28;20092;-70
2023/05/14 14:25:03;;;;;;;2.00;1.40;;;;;;;;;;5071215;28;20048;-68
2023/05/14 14:27:31;;;;;;;1.42;1.33;;;;;;;;;;5070336;28;20494;-68
2023/05/14 14:29:57;;;;;;;2.00;1.48;;;;;;;;;;5070943;28;20054;-69
2023/05/14 14:32:24;;;;;;;1.58;1.40;;;;;;;;;;5071118;28;20040;-69
2023/05/14 14:34:50;;;;;;;2.40;1.23;;;;;;;;;;5084768;28;20044;-69
2023/05/14 14:37:17;;;;;;;1.23;0.93;;;;;;;;;;5090575;28;20506;-70
2023/05/14 14:39:43;;;;;;;1.08;0.98;;;;;;;;;;5090718;28;20051;-69
2023/05/14 14:42:11;;;;;;;1.30;1.05;;;;;;;;;;5090534;28;20040;-69